Tringa II Of Hamble — MRBH3 — position and weather

sailwx.info

Track history (hours):
 
Tides and Currents Weather Stations Pressure Air Temp Water Temp Dewpoint Dewpoint Depression Visibility Wind Speed Wind Dir Waves Ship Positions

Tringa II Of Hamble

Last reported at 2017-Aug-28 14:07 UTC. Time now 2017-Sep-26 22:04 UTC.
Position N 50°51' W 000°56'.
Warning: this ship's position is 29 days out of date.

Length 10 m.

Type: Sailing vessel. MMSI: 235005408.

Date/timePositionNaut miles runAvg speedWind from/ knotsBaromVisibWave heightAir tempDewpointWater temp
2017-Aug-28 14:07N 50°51' W 000°56'0 0.3
2017-Aug-28 14:00N 50°51' W 000°56'3 5.3
2017-Aug-28 13:30N 50°48' W 000°56'2 4.5
2017-Aug-28 13:00N 50°46' W 000°58'3 5.4
2017-Aug-28 12:30N 50°46' W 001°03'3 5.8
2017-Aug-28 12:00N 50°46' W 001°07'3 6.2
2017-Aug-28 11:30N 50°47' W 001°12'3 6.2
2017-Aug-28 11:00N 50°49' W 001°16'3 5.5
2017-Aug-28 10:29N 50°51' W 001°20'2 0.1
2017-Aug-27 13:03N 50°52' W 001°22'0 6.2
2017-Aug-27 13:00N 50°51' W 001°22'3 6.1
2017-Aug-27 12:31N 50°49' W 001°18'3 5.4
2017-Aug-27 12:00N 50°47' W 001°15'2 4.3
2017-Aug-27 11:30N 50°45' W 001°13'  
2017-Aug-24 20:17N 50°44' W 001°13'0 0.1
2017-Aug-24 20:00N 50°44' W 001°13'1 2.5
2017-Aug-24 19:30N 50°45' W 001°11'2 3.7
2017-Aug-24 19:00N 50°45' W 001°08'2 4.4
2017-Aug-24 18:30N 50°44' W 001°05'3 5.5
2017-Aug-24 18:00N 50°42' W 001°03'41 4.9
2017-Aug-24 09:40N 50°03' W 001°24'1 6.5
2017-Aug-24 09:29N 50°02' W 001°25'3 6.3
2017-Aug-24 09:00N 49°59' W 001°26'4 7.1
2017-Aug-24 08:30N 49°56' W 001°29'3 6.4
2017-Aug-24 08:00N 49°53' W 001°31'3 6.8
2017-Aug-24 07:30N 49°50' W 001°34'3 6.4
2017-Aug-24 07:00N 49°47' W 001°35'3 6.1
2017-Aug-24 06:30N 49°44' W 001°35'3 5.3
2017-Aug-24 06:00N 49°41' W 001°35'3 5.3
2017-Aug-24 05:30N 49°39' W 001°37'0 0.0
2017-Aug-22 18:28N 49°39' W 001°37'1 1.8
2017-Aug-22 18:00N 49°40' W 001°37'4 7.2
2017-Aug-22 17:30N 49°41' W 001°42'4 7.1
2017-Aug-22 17:00N 49°43' W 001°47'3 5.5
2017-Aug-22 16:30N 49°44' W 001°51'2 4.0
2017-Aug-22 16:00N 49°44' W 001°54'2 2.7
2017-Aug-22 15:25N 49°45' W 001°56'0 1.1
2017-Aug-22 15:00N 49°45' W 001°57'1 0.8
2017-Aug-22 14:09N 49°45' W 001°56'0 2.7
2017-Aug-22 14:00N 49°45' W 001°56'1 1.1
2017-Aug-22 13:28N 49°45' W 001°55'1 1.6
2017-Aug-22 12:57N 49°45' W 001°54'0 0.5
2017-Aug-22 12:30N 49°45' W 001°54'0 0.8
2017-Aug-22 12:00N 49°44' W 001°54'0 0.7
2017-Aug-22 11:30N 49°45' W 001°54'0 0.9
2017-Aug-22 11:00N 49°45' W 001°54'1 1.1
2017-Aug-22 10:30N 49°45' W 001°55'2 3.3
2017-Aug-22 09:49N 49°46' W 001°57'2 6.6
2017-Aug-22 09:30N 49°46' W 002°01'5 7.5
2017-Aug-22 08:53N 49°43' W 002°06'11 7.8
2017-Aug-22 07:28N 49°36' W 002°20'3 6.9
2017-Aug-22 07:01N 49°34' W 002°23'3 6.1
2017-Aug-22 06:27N 49°31' W 002°27'41 0.9
2017-Aug-20 07:53N 48°51' W 002°17'7 6.7
2017-Aug-20 06:51N 48°46' W 002°11'6 5.9
2017-Aug-20 05:51N 48°41' W 002°06'  
Track history (hours):
 
Tides and Currents Weather Stations Pressure Air Temp Water Temp Dewpoint Dewpoint Depression Visibility Wind Speed Wind Dir Waves Ship Positions

Tringa II Of Hamble

Last reported at 2017-Aug-28 14:07 UTC. Time now 2017-Sep-26 22:04 UTC.
Position N 50°51' W 000°56'.
Warning: this ship's position is 29 days out of date.

Length 10 m.

Type: Sailing vessel. MMSI: 235005408.

Date/timePositionNaut miles runAvg speedWind from/ knotsBaromVisibWave heightAir tempDewpointWater temp
2017-Aug-28 14:07N 50°51' W 000°56'0 0.3
2017-Aug-28 14:00N 50°51' W 000°56'3 5.3
2017-Aug-28 13:30N 50°48' W 000°56'2 4.5
2017-Aug-28 13:00N 50°46' W 000°58'3 5.4
2017-Aug-28 12:30N 50°46' W 001°03'3 5.8
2017-Aug-28 12:00N 50°46' W 001°07'3 6.2
2017-Aug-28 11:30N 50°47' W 001°12'3 6.2
2017-Aug-28 11:00N 50°49' W 001°16'3 5.5
2017-Aug-28 10:29N 50°51' W 001°20'2 0.1
2017-Aug-27 13:03N 50°52' W 001°22'0 6.2
2017-Aug-27 13:00N 50°51' W 001°22'3 6.1
2017-Aug-27 12:31N 50°49' W 001°18'3 5.4
2017-Aug-27 12:00N 50°47' W 001°15'2 4.3
2017-Aug-27 11:30N 50°45' W 001°13'  
2017-Aug-24 20:17N 50°44' W 001°13'0 0.1
2017-Aug-24 20:00N 50°44' W 001°13'1 2.5
2017-Aug-24 19:30N 50°45' W 001°11'2 3.7
2017-Aug-24 19:00N 50°45' W 001°08'2 4.4
2017-Aug-24 18:30N 50°44' W 001°05'3 5.5
2017-Aug-24 18:00N 50°42' W 001°03'41 4.9
2017-Aug-24 09:40N 50°03' W 001°24'1 6.5
2017-Aug-24 09:29N 50°02' W 001°25'3 6.3
2017-Aug-24 09:00N 49°59' W 001°26'4 7.1
2017-Aug-24 08:30N 49°56' W 001°29'3 6.4
2017-Aug-24 08:00N 49°53' W 001°31'3 6.8
2017-Aug-24 07:30N 49°50' W 001°34'3 6.4
2017-Aug-24 07:00N 49°47' W 001°35'3 6.1
2017-Aug-24 06:30N 49°44' W 001°35'3 5.3
2017-Aug-24 06:00N 49°41' W 001°35'3 5.3
2017-Aug-24 05:30N 49°39' W 001°37'0 0.0
2017-Aug-22 18:28N 49°39' W 001°37'1 1.8
2017-Aug-22 18:00N 49°40' W 001°37'4 7.2
2017-Aug-22 17:30N 49°41' W 001°42'4 7.1
2017-Aug-22 17:00N 49°43' W 001°47'3 5.5
2017-Aug-22 16:30N 49°44' W 001°51'2 4.0
2017-Aug-22 16:00N 49°44' W 001°54'2 2.7
2017-Aug-22 15:25N 49°45' W 001°56'0 1.1
2017-Aug-22 15:00N 49°45' W 001°57'1 0.8
2017-Aug-22 14:09N 49°45' W 001°56'0 2.7
2017-Aug-22 14:00N 49°45' W 001°56'1 1.1
2017-Aug-22 13:28N 49°45' W 001°55'1 1.6
2017-Aug-22 12:57N 49°45' W 001°54'0 0.5
2017-Aug-22 12:30N 49°45' W 001°54'0 0.8
2017-Aug-22 12:00N 49°44' W 001°54'0 0.7
2017-Aug-22 11:30N 49°45' W 001°54'0 0.9
2017-Aug-22 11:00N 49°45' W 001°54'1 1.1
2017-Aug-22 10:30N 49°45' W 001°55'2 3.3
2017-Aug-22 09:49N 49°46' W 001°57'2 6.6
2017-Aug-22 09:30N 49°46' W 002°01'5 7.5
2017-Aug-22 08:53N 49°43' W 002°06'11 7.8
2017-Aug-22 07:28N 49°36' W 002°20'3 6.9
2017-Aug-22 07:01N 49°34' W 002°23'3 6.1
2017-Aug-22 06:27N 49°31' W 002°27'41 0.9
2017-Aug-20 07:53N 48°51' W 002°17'7 6.7
2017-Aug-20 06:51N 48°46' W 002°11'6 5.9
2017-Aug-20 05:51N 48°41' W 002°06'  

Dump ship's entire track history